createdAt,value
2023-04-09T00:00:30.828Z,36.70
2023-04-09T00:02:58.749Z,37.87
2023-04-09T00:05:26.658Z,39.53
2023-04-09T00:07:54.668Z,38.10
2023-04-09T00:10:22.621Z,40.37
2023-04-09T00:12:50.518Z,38.70
2023-04-09T00:15:30.085Z,39.40
2023-04-09T00:18:01.222Z,36.63
2023-04-09T00:20:29.097Z,40.67
2023-04-09T00:22:58.127Z,38.20
2023-04-09T00:25:25.989Z,42.13
2023-04-09T00:27:53.740Z,40.30
2023-04-09T00:30:21.925Z,37.50
2023-04-09T00:32:50.482Z,36.93
2023-04-09T00:35:19.809Z,38.73
2023-04-09T00:37:47.660Z,38.80
2023-04-09T00:40:15.511Z,34.30
2023-04-09T00:42:43.322Z,39.57
2023-04-09T00:45:11.845Z,37.17
2023-04-09T00:47:39.793Z,40.63
2023-04-09T00:50:08.508Z,38.27
2023-04-09T00:52:37.701Z,43.07
2023-04-09T00:55:07.106Z,41.60
2023-04-09T00:57:35.985Z,42.07
2023-04-09T01:00:04.681Z,40.87
2023-04-09T01:02:32.804Z,41.93
2023-04-09T01:05:00.780Z,40.70
2023-04-09T01:07:40.686Z,43.70
2023-04-09T01:10:18.051Z,44.33
2023-04-09T01:12:55.647Z,42.80
2023-04-09T01:15:27.737Z,44.40
2023-04-09T01:18:03.814Z,43.73
2023-04-09T01:20:36.661Z,41.37
2023-04-09T01:23:17.008Z,45.53
2023-04-09T01:25:50.810Z,45.23
2023-04-09T01:28:23.618Z,40.17
2023-04-09T01:30:58.521Z,43.30
2023-04-09T01:33:28.058Z,46.53
2023-04-09T01:35:58.225Z,42.73
2023-04-09T01:38:27.495Z,40.20
2023-04-09T01:40:56.601Z,45.93
2023-04-09T01:43:28.603Z,39.00
2023-04-09T01:45:56.778Z,37.20
2023-04-09T01:48:25.454Z,40.60
2023-04-09T01:50:53.518Z,38.37
2023-04-09T01:53:22.845Z,39.83
2023-04-09T01:55:50.719Z,39.80
2023-04-09T01:58:18.547Z,40.60
2023-04-09T02:00:49.560Z,36.83
2023-04-09T02:03:22.817Z,37.90
2023-04-09T02:05:56.451Z,43.60
2023-04-09T02:08:26.004Z,41.87
2023-04-09T02:10:59.066Z,41.87
2023-04-09T02:13:28.324Z,41.10
2023-04-09T02:16:00.851Z,42.77
2023-04-09T02:18:30.992Z,44.80
2023-04-09T02:20:59.847Z,38.03
2023-04-09T02:23:28.183Z,38.17
2023-04-09T02:25:56.175Z,39.37
2023-04-09T02:28:24.010Z,41.87
2023-04-09T02:30:52.992Z,39.10
2023-04-09T02:33:22.503Z,46.80
2023-04-09T02:35:50.372Z,40.90
2023-04-09T02:38:18.296Z,44.00
2023-04-09T02:40:46.190Z,45.73
2023-04-09T02:43:14.101Z,44.43
2023-04-09T02:45:41.937Z,46.73
2023-04-09T02:48:09.758Z,47.30
2023-04-09T02:50:38.988Z,45.53
2023-04-09T02:53:06.813Z,45.97
2023-04-09T02:55:34.710Z,43.07
2023-04-09T02:58:02.476Z,46.67
2023-04-09T03:00:30.293Z,47.40
2023-04-09T03:02:58.544Z,51.13
2023-04-09T03:05:26.485Z,50.23
2023-04-09T03:07:56.209Z,52.50
2023-04-09T03:10:24.036Z,48.77
2023-04-09T03:12:51.861Z,48.57
2023-04-09T03:15:19.745Z,61.10
2023-04-09T03:17:47.588Z,62.27
2023-04-09T03:20:15.440Z,58.80
2023-04-09T03:22:43.308Z,55.70
2023-04-09T03:25:23.556Z,59.80
2023-04-09T03:27:55.081Z,58.90
2023-04-09T03:30:41.385Z,61.60
2023-04-09T03:33:09.959Z,57.57
2023-04-09T03:35:48.621Z,57.63
2023-04-09T03:38:19.586Z,53.53
2023-04-09T03:40:48.808Z,58.70
2023-04-09T03:43:16.748Z,59.43
2023-04-09T03:45:50.092Z,53.87
2023-04-09T03:48:23.171Z,50.03
2023-04-09T03:50:53.489Z,51.33
2023-04-09T03:53:29.065Z,53.40
2023-04-09T03:56:04.396Z,52.00
2023-04-09T03:58:33.362Z,48.37
2023-04-09T04:01:01.703Z,49.27
2023-04-09T04:03:38.090Z,50.07
2023-04-09T04:06:34.581Z,54.37
2023-04-09T04:09:10.870Z,50.97
2023-04-09T04:11:51.057Z,52.27
2023-04-09T04:14:20.357Z,60.23
2023-04-09T04:16:53.568Z,59.80
2023-04-09T04:19:24.122Z,63.83
2023-04-09T04:21:52.965Z,67.37
2023-04-09T04:24:20.816Z,66.93
2023-04-09T04:26:49.208Z,67.37
2023-04-09T04:29:21.196Z,67.30
2023-04-09T04:31:57.577Z,66.37
2023-04-09T04:34:28.808Z,68.67
2023-04-09T04:37:02.968Z,75.33
2023-04-09T04:39:33.721Z,72.87
2023-04-09T04:42:06.005Z,59.50
2023-04-09T04:44:35.190Z,66.60
2023-04-09T04:47:13.607Z,62.83
2023-04-09T04:49:41.511Z,61.13
2023-04-09T04:52:10.157Z,61.80
2023-04-09T04:54:41.332Z,56.90
2023-04-09T04:57:10.224Z,59.47
2023-04-09T04:59:43.349Z,58.10
2023-04-09T05:02:13.667Z,56.57
2023-04-09T05:05:13.843Z,55.57
2023-04-09T05:07:48.517Z,52.30
2023-04-09T05:10:16.365Z,47.00
2023-04-09T05:12:44.796Z,47.73
2023-04-09T05:15:17.058Z,47.00
2023-04-09T05:17:44.969Z,45.30
2023-04-09T05:20:14.790Z,47.00
2023-04-09T05:23:02.585Z,43.63
2023-04-09T05:25:35.601Z,43.00
2023-04-09T05:28:04.514Z,42.10
2023-04-09T05:30:35.710Z,39.40
2023-04-09T05:33:06.173Z,39.13
2023-04-09T05:35:34.612Z,38.97
2023-04-09T05:38:02.549Z,39.40
2023-04-09T05:40:30.483Z,38.80
2023-04-09T05:42:58.445Z,36.07
2023-04-09T05:45:39.762Z,38.63
2023-04-09T05:48:08.430Z,40.13
2023-04-09T05:50:51.074Z,40.43
2023-04-09T05:53:22.998Z,36.43
2023-04-09T05:55:51.165Z,35.47
2023-04-09T05:58:21.825Z,31.97
2023-04-09T06:00:52.575Z,34.50
2023-04-09T06:03:21.037Z,33.40
2023-04-09T06:05:49.311Z,31.40
2023-04-09T06:08:17.258Z,30.47
2023-04-09T06:10:45.175Z,31.97
2023-04-09T06:13:12.955Z,27.23
2023-04-09T06:15:40.793Z,38.27
2023-04-09T06:18:10.013Z,26.83
2023-04-09T06:20:37.813Z,25.60
2023-04-09T06:23:06.181Z,23.03
2023-04-09T06:25:34.056Z,26.23
2023-04-09T06:28:01.965Z,25.70
2023-04-09T06:30:31.812Z,23.93
2023-04-09T06:32:59.672Z,23.63
2023-04-09T06:35:29.781Z,21.87
2023-04-09T06:37:57.614Z,22.50
2023-04-09T06:40:25.473Z,22.00
2023-04-09T06:42:53.349Z,22.17
2023-04-09T06:45:31.188Z,20.20
2023-04-09T06:47:59.297Z,20.50
2023-04-09T06:50:27.329Z,21.33
2023-04-09T06:52:57.072Z,20.07
2023-04-09T06:55:26.791Z,31.93
2023-04-09T06:57:54.743Z,20.23
2023-04-09T07:00:23.094Z,18.57
2023-04-09T07:02:51.317Z,22.53
2023-04-09T07:05:19.632Z,19.83
2023-04-09T07:07:47.519Z,21.50
2023-04-09T07:10:16.826Z,18.87
2023-04-09T07:12:44.645Z,21.03
2023-04-09T07:15:12.430Z,19.60
2023-04-09T07:17:40.261Z,19.27
2023-04-09T07:20:08.957Z,24.93
2023-04-09T07:22:36.816Z,21.13
2023-04-09T07:25:05.471Z,20.47
2023-04-09T07:27:34.577Z,15.77
2023-04-09T07:30:03.218Z,17.87
2023-04-09T07:32:31.141Z,18.87
2023-04-09T07:34:59.393Z,15.97
2023-04-09T07:37:27.445Z,16.63
2023-04-09T07:39:55.475Z,16.80
2023-04-09T07:42:23.210Z,16.33
2023-04-09T07:44:52.392Z,14.93
2023-04-09T07:47:20.327Z,15.27
2023-04-09T07:49:50.051Z,17.08
2023-04-09T07:52:17.889Z,15.50
2023-04-09T07:54:45.712Z,17.15
2023-04-09T07:57:14.041Z,17.20
2023-04-09T07:59:41.827Z,15.35
2023-04-09T08:02:14.345Z,15.68
2023-04-09T08:04:43.137Z,50.05
2023-04-09T08:07:11.499Z,17.60
2023-04-09T08:09:39.294Z,15.48
2023-04-09T08:12:07.115Z,15.00
2023-04-09T08:14:35.063Z,15.60
2023-04-09T08:17:02.881Z,16.15
2023-04-09T08:19:32.143Z,13.82
2023-04-09T08:22:00.022Z,15.05
2023-04-09T08:24:28.222Z,14.00
2023-04-09T08:26:56.631Z,14.65
2023-04-09T08:29:24.446Z,14.77
2023-04-09T08:31:52.221Z,15.50
2023-04-09T08:34:22.019Z,14.52
2023-04-09T08:36:51.285Z,14.38
2023-04-09T08:39:20.148Z,13.90
2023-04-09T08:41:48.587Z,15.60
2023-04-09T08:44:17.690Z,15.88
2023-04-09T08:46:45.708Z,15.23
2023-04-09T08:49:13.574Z,16.08
2023-04-09T08:51:46.902Z,12.68
2023-04-09T08:54:19.896Z,13.45
2023-04-09T08:56:47.914Z,12.82
2023-04-09T08:59:18.495Z,13.27
2023-04-09T09:01:47.957Z,12.00
2023-04-09T09:04:16.182Z,11.55
2023-04-09T09:06:44.512Z,11.43
2023-04-09T09:09:14.752Z,11.20
2023-04-09T09:11:45.698Z,11.52
2023-04-09T09:14:14.872Z,11.10
2023-04-09T09:16:44.339Z,12.55
2023-04-09T09:19:30.245Z,11.55
2023-04-09T09:21:59.417Z,11.73
2023-04-09T09:24:27.336Z,9.00
2023-04-09T09:26:57.422Z,9.50
2023-04-09T09:29:25.948Z,7.95
2023-04-09T09:31:55.633Z,9.10
2023-04-09T09:34:25.219Z,8.68
2023-04-09T09:36:53.038Z,9.40
2023-04-09T09:39:22.058Z,9.45
2023-04-09T09:42:07.568Z,10.20
2023-04-09T09:44:36.733Z,9.32
2023-04-09T09:47:05.531Z,8.60
2023-04-09T09:49:33.594Z,8.95
2023-04-09T09:52:03.913Z,8.32
2023-04-09T09:54:40.960Z,8.65
2023-04-09T09:57:10.193Z,8.23
2023-04-09T09:59:44.432Z,7.72
2023-04-09T10:02:19.445Z,8.52
2023-04-09T10:04:49.645Z,8.60
2023-04-09T10:07:19.388Z,7.70
2023-04-09T10:09:50.754Z,8.45
2023-04-09T10:12:23.637Z,8.50
2023-04-09T10:14:54.102Z,8.20
2023-04-09T10:17:22.057Z,8.32
2023-04-09T10:20:00.383Z,7.63
2023-04-09T10:22:32.756Z,8.50
2023-04-09T10:25:00.652Z,7.30
2023-04-09T10:27:28.409Z,7.47
2023-04-09T10:29:57.553Z,7.72
2023-04-09T10:32:28.004Z,8.18
2023-04-09T10:34:59.209Z,8.50
2023-04-09T10:37:28.596Z,8.68
2023-04-09T10:39:57.834Z,7.13
2023-04-09T10:42:31.811Z,8.93
2023-04-09T10:45:08.980Z,8.10
2023-04-09T10:47:37.945Z,7.88
2023-04-09T10:50:22.503Z,7.65
2023-04-09T10:52:54.586Z,7.45
2023-04-09T10:55:34.023Z,7.53
2023-04-09T10:58:01.921Z,8.98
2023-04-09T11:00:31.009Z,8.32
2023-04-09T11:03:20.207Z,7.10
2023-04-09T11:05:52.547Z,8.38
2023-04-09T11:08:22.044Z,7.93
2023-04-09T11:10:52.245Z,7.72
2023-04-09T11:13:21.823Z,7.93
2023-04-09T11:15:51.727Z,7.85
2023-04-09T11:18:24.782Z,9.93
2023-04-09T11:20:56.177Z,7.72
2023-04-09T11:23:25.257Z,7.65
2023-04-09T11:25:54.090Z,7.90
2023-04-09T11:28:22.181Z,7.43
2023-04-09T11:30:53.719Z,8.48
2023-04-09T11:33:21.606Z,8.10
2023-04-09T11:35:49.760Z,8.25
2023-04-09T11:38:17.833Z,7.97
2023-04-09T11:40:48.535Z,8.18
2023-04-09T11:43:17.704Z,8.02
2023-04-09T11:45:48.142Z,7.93
2023-04-09T11:48:19.168Z,8.15
2023-04-09T11:50:47.842Z,8.07
2023-04-09T11:53:20.408Z,8.05
2023-04-09T11:55:50.624Z,7.70
2023-04-09T11:58:18.604Z,8.38
2023-04-09T12:00:46.574Z,8.55
2023-04-09T12:03:16.462Z,8.80
2023-04-09T12:05:51.028Z,8.35
2023-04-09T12:08:24.813Z,9.05
2023-04-09T12:10:53.878Z,7.55
2023-04-09T12:13:22.109Z,7.72
2023-04-09T12:15:51.383Z,8.05
2023-04-09T12:18:19.226Z,7.35
2023-04-09T12:20:49.690Z,7.72
2023-04-09T12:23:17.872Z,8.00
2023-04-09T12:25:47.628Z,7.82
2023-04-09T12:28:18.287Z,7.80
2023-04-09T12:30:46.994Z,7.43
2023-04-09T12:33:14.787Z,7.72
2023-04-09T12:35:42.610Z,6.80
2023-04-09T12:38:11.905Z,7.43
2023-04-09T12:40:40.199Z,7.38
2023-04-09T12:43:07.943Z,7.35
2023-04-09T12:45:35.922Z,7.85
2023-04-09T12:48:03.762Z,8.10
2023-04-09T12:50:31.612Z,7.53
2023-04-09T12:52:59.357Z,7.90
2023-04-09T12:55:28.982Z,7.07
2023-04-09T12:57:56.762Z,7.20
2023-04-09T13:00:24.607Z,7.72
2023-04-09T13:02:52.829Z,7.20
2023-04-09T13:05:20.941Z,8.45
2023-04-09T13:07:48.712Z,7.68
2023-04-09T13:10:16.690Z,12.27
2023-04-09T13:12:45.890Z,9.00
2023-04-09T13:15:13.722Z,7.43
2023-04-09T13:17:41.533Z,7.13
2023-04-09T13:20:10.330Z,7.18
2023-04-09T13:22:38.348Z,7.47
2023-04-09T13:25:06.788Z,6.80
2023-04-09T13:27:34.671Z,7.43
2023-04-09T13:30:03.969Z,7.57
2023-04-09T13:32:31.881Z,6.95
2023-04-09T13:34:59.864Z,7.30
2023-04-09T13:37:27.789Z,6.80
2023-04-09T13:39:55.608Z,6.72
2023-04-09T13:42:23.354Z,7.90
2023-04-09T13:44:51.294Z,7.13
2023-04-09T13:47:21.073Z,7.05
2023-04-09T13:49:51.398Z,6.82
2023-04-09T13:52:19.189Z,8.43
2023-04-09T13:54:47.158Z,7.32
2023-04-09T13:57:15.074Z,8.25
2023-04-09T13:59:43.989Z,7.03
2023-04-09T14:02:12.020Z,7.20
2023-04-09T14:04:41.300Z,7.85
2023-04-09T14:07:09.168Z,6.57
2023-04-09T14:09:37.021Z,7.25
2023-04-09T14:12:05.013Z,6.65
2023-04-09T14:14:32.831Z,7.25
2023-04-09T14:17:00.577Z,6.68
2023-04-09T14:19:28.460Z,6.35
2023-04-09T14:21:57.690Z,6.68
2023-04-09T14:24:25.730Z,6.72
2023-04-09T14:26:53.785Z,6.93
2023-04-09T14:29:22.588Z,6.78
2023-04-09T14:31:51.700Z,6.32
2023-04-09T14:34:19.645Z,6.78
2023-04-09T14:36:47.805Z,6.38
2023-04-09T14:39:17.734Z,7.40
2023-04-09T14:41:45.631Z,7.57
2023-04-09T14:44:13.646Z,6.80
2023-04-09T14:46:41.546Z,6.50
2023-04-09T14:49:09.469Z,6.10
2023-04-09T14:51:37.295Z,7.15
2023-04-09T14:54:05.179Z,6.57
2023-04-09T14:56:36.093Z,6.43
2023-04-09T14:59:04.265Z,6.72
2023-04-09T15:01:33.142Z,6.00
2023-04-09T15:04:01.391Z,6.75
2023-04-09T15:06:31.355Z,6.63
2023-04-09T15:08:59.203Z,6.55
2023-04-09T15:11:27.894Z,6.80
2023-04-09T15:13:57.886Z,6.80
2023-04-09T15:16:29.238Z,6.32
2023-04-09T15:18:59.034Z,6.30
2023-04-09T15:21:27.179Z,6.28
2023-04-09T15:23:55.226Z,6.07
2023-04-09T15:26:23.112Z,5.70
2023-04-09T15:28:51.284Z,6.18
2023-04-09T15:31:21.132Z,5.70
2023-04-09T15:33:50.386Z,6.25
2023-04-09T15:36:18.203Z,6.47
2023-04-09T15:38:46.092Z,6.15
2023-04-09T15:41:13.851Z,6.22
2023-04-09T15:43:41.671Z,6.53
2023-04-09T15:46:10.605Z,5.88
2023-04-09T15:48:39.910Z,6.20
2023-04-09T15:51:08.047Z,5.88
2023-04-09T15:53:35.903Z,5.72
2023-04-09T15:56:04.214Z,6.75
2023-04-09T15:58:32.128Z,6.70
2023-04-09T16:01:00.034Z,6.05
2023-04-09T16:03:27.899Z,5.97
2023-04-09T16:05:57.047Z,6.30
2023-04-09T16:08:26.344Z,6.07
2023-04-09T16:10:54.116Z,5.95
2023-04-09T16:13:22.010Z,5.95
2023-04-09T16:15:51.028Z,5.53
2023-04-09T16:18:18.885Z,5.72
2023-04-09T16:20:47.095Z,5.38
2023-04-09T16:23:16.272Z,5.32
2023-04-09T16:25:44.100Z,5.25
2023-04-09T16:28:11.878Z,5.82
2023-04-09T16:30:39.630Z,5.40
2023-04-09T16:33:08.632Z,4.97
2023-04-09T16:35:38.857Z,4.85
2023-04-09T16:38:07.637Z,5.25
2023-04-09T16:40:36.799Z,5.07
2023-04-09T16:43:04.717Z,5.72
2023-04-09T16:45:32.806Z,5.80
2023-04-09T16:48:00.783Z,5.57
2023-04-09T16:50:28.744Z,5.57
2023-04-09T16:52:56.612Z,5.43
2023-04-09T16:55:24.502Z,5.60
2023-04-09T16:57:55.963Z,4.72
2023-04-09T17:00:23.987Z,4.97
2023-04-09T17:02:52.028Z,4.93
2023-04-09T17:05:20.301Z,5.03
2023-04-09T17:07:48.200Z,5.82
2023-04-09T17:10:16.412Z,5.53
2023-04-09T17:12:44.351Z,4.97
2023-04-09T17:15:13.858Z,4.97
2023-04-09T17:17:41.741Z,4.72
2023-04-09T17:20:10.488Z,4.93
2023-04-09T17:22:39.285Z,4.90
2023-04-09T17:25:08.684Z,5.70
2023-04-09T17:27:36.759Z,5.30
2023-04-09T17:30:04.984Z,5.50
2023-04-09T17:32:34.232Z,4.88
2023-04-09T17:35:03.606Z,5.40
2023-04-09T17:37:31.411Z,5.22
2023-04-09T17:39:59.212Z,6.03
2023-04-09T17:42:27.012Z,5.60
2023-04-09T17:44:54.741Z,5.07
2023-04-09T17:47:22.614Z,5.70
2023-04-09T17:49:51.788Z,6.13
2023-04-09T17:52:20.432Z,5.72
2023-04-09T17:54:50.565Z,5.32
2023-04-09T17:57:18.446Z,5.13
2023-04-09T17:59:46.231Z,5.97
2023-04-09T18:02:14.201Z,5.68
2023-04-09T18:04:42.284Z,5.55
2023-04-09T18:07:11.583Z,6.47
2023-04-09T18:09:40.510Z,5.82
2023-04-09T18:12:08.445Z,6.20
2023-04-09T18:14:36.276Z,6.30
2023-04-09T18:17:04.155Z,6.25
2023-04-09T18:19:32.163Z,6.70
2023-04-09T18:22:00.159Z,6.25
2023-04-09T18:24:30.222Z,6.63
2023-04-09T18:26:58.042Z,7.00
2023-04-09T18:29:27.468Z,7.32
2023-04-09T18:31:56.060Z,7.43
2023-04-09T18:34:24.294Z,8.82
2023-04-09T18:36:52.575Z,8.68
2023-04-09T18:39:21.012Z,7.38
2023-04-09T18:41:50.430Z,8.02
2023-04-09T18:44:18.174Z,7.60
2023-04-09T18:46:45.982Z,8.60
2023-04-09T18:49:13.774Z,8.55
2023-04-09T18:51:41.634Z,8.00
2023-04-09T18:54:09.509Z,8.02
2023-04-09T18:56:37.239Z,8.93
2023-04-09T18:59:06.438Z,8.63
2023-04-09T19:01:34.340Z,8.13
2023-04-09T19:04:02.360Z,8.40
2023-04-09T19:06:30.383Z,8.55
2023-04-09T19:08:58.972Z,9.23
2023-04-09T19:11:27.046Z,8.85
2023-04-09T19:13:55.084Z,8.85
2023-04-09T19:16:24.349Z,9.68
2023-04-09T19:18:52.398Z,7.95
2023-04-09T19:21:20.369Z,7.82
2023-04-09T19:23:48.116Z,8.45
2023-04-09T19:26:15.899Z,8.35
2023-04-09T19:28:43.641Z,8.90
2023-04-09T19:31:14.260Z,9.02
2023-04-09T19:33:43.572Z,9.15
2023-04-09T19:36:12.883Z,10.10
2023-04-09T19:38:40.922Z,11.02
2023-04-09T19:41:08.757Z,11.43
2023-04-09T19:43:38.681Z,12.60
2023-04-09T19:46:08.411Z,11.43
2023-04-09T19:48:36.543Z,10.38
2023-04-09T19:51:06.112Z,10.45
2023-04-09T19:53:36.239Z,10.45
2023-04-09T19:56:05.683Z,10.38
2023-04-09T19:58:33.655Z,10.73
2023-04-09T20:01:01.600Z,10.67
2023-04-09T20:03:29.479Z,10.60
2023-04-09T20:05:57.477Z,10.47
2023-04-09T20:08:27.372Z,12.70
2023-04-09T20:10:55.221Z,11.10
2023-04-09T20:13:23.345Z,10.67
2023-04-09T20:15:51.706Z,57.13
2023-04-09T20:18:19.643Z,15.80
2023-04-09T20:20:47.613Z,11.53
2023-04-09T20:23:15.504Z,12.20
2023-04-09T20:25:44.626Z,13.47
2023-04-09T20:28:12.508Z,12.90
2023-04-09T20:30:40.330Z,12.50
2023-04-09T20:33:08.119Z,12.43
2023-04-09T20:35:36.637Z,14.97
2023-04-09T20:38:04.663Z,10.73
2023-04-09T20:40:33.068Z,11.67
2023-04-09T20:43:02.397Z,13.30
2023-04-09T20:45:30.399Z,12.67
2023-04-09T20:47:58.321Z,13.33
2023-04-09T20:50:26.194Z,15.03
2023-04-09T20:52:54.003Z,14.20
2023-04-09T20:55:22.031Z,15.30
2023-04-09T20:57:50.132Z,19.80
2023-04-09T21:00:19.713Z,18.83
2023-04-09T21:02:47.564Z,19.87
2023-04-09T21:05:22.583Z,20.80
2023-04-09T21:07:51.517Z,25.43
2023-04-09T21:10:19.437Z,33.30
2023-04-09T21:12:47.177Z,40.37
2023-04-09T21:15:15.343Z,42.63
2023-04-09T21:17:44.602Z,42.53
2023-04-09T21:20:13.060Z,38.80
2023-04-09T21:22:41.029Z,35.53
2023-04-09T21:25:09.669Z,33.23
2023-04-09T21:27:37.520Z,32.20
2023-04-09T21:30:06.079Z,32.33
2023-04-09T21:32:33.946Z,30.27
2023-04-09T21:35:03.118Z,30.80
2023-04-09T21:37:32.978Z,29.33
2023-04-09T21:40:00.831Z,29.93
2023-04-09T21:42:31.417Z,29.73
2023-04-09T21:44:59.461Z,28.47
2023-04-09T21:47:27.609Z,30.00
2023-04-09T21:49:55.685Z,28.57
2023-04-09T21:52:25.164Z,30.63
2023-04-09T21:54:52.970Z,30.93
2023-04-09T21:57:20.835Z,30.53
2023-04-09T21:59:48.636Z,33.03
2023-04-09T22:02:16.665Z,32.93
2023-04-09T22:04:44.589Z,30.53
2023-04-09T22:07:13.008Z,34.10
2023-04-09T22:09:42.164Z,34.13
2023-04-09T22:12:09.953Z,33.07
2023-04-09T22:14:39.173Z,32.60
2023-04-09T22:17:08.788Z,33.63
2023-04-09T22:19:36.743Z,33.57
2023-04-09T22:22:04.565Z,35.60
2023-04-09T22:24:33.739Z,34.27
2023-04-09T22:27:02.870Z,36.17
2023-04-09T22:29:31.251Z,35.53
2023-04-09T22:31:59.065Z,36.60
2023-04-09T22:34:27.230Z,39.43
2023-04-09T22:36:55.034Z,37.93
2023-04-09T22:39:22.818Z,38.47
2023-04-09T22:41:50.649Z,37.27
2023-04-09T22:44:19.878Z,38.00
2023-04-09T22:46:47.731Z,37.13
2023-04-09T22:49:15.829Z,38.80
2023-04-09T22:51:43.664Z,38.57
2023-04-09T22:54:11.477Z,41.83
2023-04-09T22:56:39.666Z,37.67
2023-04-09T22:59:07.563Z,38.87
2023-04-09T23:01:36.826Z,37.30
2023-04-09T23:04:04.768Z,39.20
2023-04-09T23:06:32.756Z,42.47
2023-04-09T23:09:00.939Z,41.60
2023-04-09T23:11:28.915Z,47.07
2023-04-09T23:13:56.653Z,44.60
2023-04-09T23:16:24.506Z,44.23
2023-04-09T23:18:53.974Z,56.73
2023-04-09T23:21:22.069Z,49.40
2023-04-09T23:23:49.853Z,52.47
2023-04-09T23:26:17.592Z,52.70
2023-04-09T23:28:45.403Z,54.30
2023-04-09T23:31:13.229Z,55.27
2023-04-09T23:33:41.101Z,56.17
2023-04-09T23:36:10.872Z,57.10
2023-04-09T23:38:40.285Z,54.97
2023-04-09T23:41:08.249Z,61.70
2023-04-09T23:43:35.996Z,59.80
2023-04-09T23:46:03.784Z,67.33
2023-04-09T23:48:31.545Z,63.77
2023-04-09T23:50:59.324Z,77.20
2023-04-09T23:53:28.435Z,64.63
2023-04-09T23:55:56.187Z,67.47
2023-04-09T23:58:24.042Z,66.23
